Map

Track Data

SID SEASON NUMBER BASIN SUBBASIN NAME ISO_TIME NATURE LAT LON WMO_WIND WMO_PRES WMO_AGENCY TRACK_TYPE DIST2LAND LANDFALL IFLAG USA_AGENCY USA_ATCF_ID USA_LAT USA_LON USA_RECORD USA_STATUS USA_WIND USA_PRES USA_SSHS USA_R34_NE USA_R34_SE USA_R34_SW USA_R34_NW USA_R50_NE USA_R50_SE USA_R50_SW USA_R50_NW USA_R64_NE USA_R64_SE USA_R64_SW USA_R64_NW USA_POCI USA_ROCI USA_RMW USA_EYE TOKYO_LAT TOKYO_LON TOKYO_GRADE TOKYO_WIND TOKYO_PRES TOKYO_R50_DIR TOKYO_R50_LONG TOKYO_R50_SHORT TOKYO_R30_DIR TOKYO_R30_LONG TOKYO_R30_SHORT TOKYO_LAND CMA_LAT CMA_LON CMA_CAT CMA_WIND CMA_PRES HKO_LAT HKO_LON HKO_CAT HKO_WIND HKO_PRES NEWDELHI_LAT NEWDELHI_LON NEWDELHI_GRADE NEWDELHI_WIND NEWDELHI_PRES NEWDELHI_CI NEWDELHI_DP NEWDELHI_POCI REUNION_LAT REUNION_LON REUNION_TYPE REUNION_WIND REUNION_PRES REUNION_TNUM REUNION_CI REUNION_RMW REUNION_R34_NE REUNION_R34_SE REUNION_R34_SW REUNION_R34_NW REUNION_R50_NE REUNION_R50_SE REUNION_R50_SW REUNION_R50_NW REUNION_R64_NE REUNION_R64_SE REUNION_R64_SW REUNION_R64_NW BOM_LAT BOM_LON BOM_TYPE BOM_WIND BOM_PRES BOM_TNUM BOM_CI BOM_RMW BOM_R34_NE BOM_R34_SE BOM_R34_SW BOM_R34_NW BOM_R50_NE BOM_R50_SE BOM_R50_SW BOM_R50_NW BOM_R64_NE BOM_R64_SE BOM_R64_SW BOM_R64_NW BOM_ROCI BOM_POCI BOM_EYE BOM_POS_METHOD BOM_PRES_METHOD NADI_LAT NADI_LON NADI_CAT NADI_WIND NADI_PRES WELLINGTON_LAT WELLINGTON_LON WELLINGTON_WIND WELLINGTON_PRES DS824_LAT DS824_LON DS824_STAGE DS824_WIND DS824_PRES TD9636_LAT TD9636_LON TD9636_STAGE TD9636_WIND TD9636_PRES TD9635_LAT TD9635_LON TD9635_WIND TD9635_PRES TD9635_ROCI NEUMANN_LAT NEUMANN_LON NEUMANN_CLASS NEUMANN_WIND NEUMANN_PRES MLC_LAT MLC_LON MLC_CLASS MLC_WIND MLC_PRES USA_GUST BOM_GUST BOM_GUST_PER REUNION_GUST REUNION_GUST_PER USA_SEAHGT USA_SEARAD_NE USA_SEARAD_SE USA_SEARAD_SW USA_SEARAD_NW STORM_SPEED STORM_DIR
1908144N14116 1908 19 WP MM NOT_NAMED 1908-05-22 16:00:00 NR 13.6000 115.600 main 492 492 __________O___ -1 13.6000 115.600 4 3 305
1908144N14116 1908 19 WP MM NOT_NAMED 1908-05-22 18:00:00 NR 13.6511 115.529 main 507 507 __________P___ -1 13.6511 115.529 4 3 307
1908144N14116 1908 19 WP MM NOT_NAMED 1908-05-22 21:00:00 NR 13.7273 115.424 main 516 516 __________P___ -1 13.7273 115.424 4 3 307
1908144N14116 1908 19 WP MM NOT_NAMED 1908-05-23 00:00:00 NR 13.8025 115.324 main 526 522 __________P___ -1 13.8025 115.324 4 2 308
1908144N14116 1908 19 WP MM NOT_NAMED 1908-05-23 03:00:00 NR 13.8760 115.229 main 532 532 __________P___ -1 13.8760 115.229 4 2 310
1908144N14116 1908 19 WP MM NOT_NAMED 1908-05-23 04:00:00 NR 13.9000 115.200 main 532 532 __________O___ -1 13.9000 115.200 4 2 313
1908144N14116 1908 19 WP MM NOT_NAMED 1908-05-23 06:00:00 NR 13.9474 115.144 main 543 539 __________P___ -1 13.9474 115.144 4 2 312
1908144N14116 1908 19 WP MM NOT_NAMED 1908-05-23 09:00:00 NR 14.0184 115.067 main 539 539 __________P___ -1 14.0184 115.067 4 2 316
1908144N14116 1908 19 WP MM NOT_NAMED 1908-05-23 12:00:00 NR 14.0921 114.995 main 546 546 __________P___ -1 14.0921 114.995 4 2 318
1908144N14116 1908 19 WP MM NOT_NAMED 1908-05-23 15:00:00 NR 14.1716 114.924 main 553 553 __________P___ -1 14.1716 114.924 4 2 322
1908144N14116 1908 19 WP MM NOT_NAMED 1908-05-23 16:00:00 NR 14.2000 114.900 main 553 549 __________O___ -1 14.2000 114.900 4 2 321
1908144N14116 1908 19 WP MM NOT_NAMED 1908-05-23 18:00:00 NR 14.2636 114.845 main 559 555 __________P___ -1 14.2636 114.845 4 3 322
1908144N14116 1908 19 WP MM NOT_NAMED 1908-05-23 21:00:00 NR 14.3653 114.762 main 555 555 __________P___ -1 14.3653 114.762 4 3 323
1908144N14116 1908 19 WP MM NOT_NAMED 1908-05-24 00:00:00 NR 14.4691 114.684 main 562 562 __________P___ -1 14.4691 114.684 4 2 327
1908144N14116 1908 19 WP MM NOT_NAMED 1908-05-24 03:00:00 NR 14.5688 114.618 main 569 569 __________P___ -1 14.5688 114.618 4 2 329
1908144N14116 1908 19 WP MM NOT_NAMED 1908-05-24 04:00:00 NR 14.6000 114.600 main 569 566 __________O___ -1 14.6000 114.600 4 2 337
1908144N14116 1908 19 WP MM NOT_NAMED 1908-05-24 06:00:00 NR 14.6505 114.569 main 566 566 __________P___ -1 14.6505 114.569 4 2 336
1908144N14116 1908 19 WP MM NOT_NAMED 1908-05-24 09:00:00 NR 14.7197 114.536 main 567 567 __________P___ -1 14.7197 114.536 4 1 340
1908144N14116 1908 19 WP MM NOT_NAMED 1908-05-24 12:00:00 NR 14.7896 114.515 main 569 569 __________P___ -1 14.7896 114.515 4 2 348
1908144N14116 1908 19 WP MM NOT_NAMED 1908-05-24 15:00:00 NR 14.8695 114.503 main 570 570 __________P___ -1 14.8695 114.503 4 2 351
1908144N14116 1908 19 WP MM NOT_NAMED 1908-05-24 16:00:00 NR 14.9000 114.500 main 570 568 __________O___ -1 14.9000 114.500 4 2 0
1908144N14116 1908 19 WP MM NOT_NAMED 1908-05-24 18:00:00 NR 14.9745 114.492 main 568 566 __________P___ -1 14.9745 114.492 4 2 0
1908144N14116 1908 19 WP MM NOT_NAMED 1908-05-24 21:00:00 NR 15.0990 114.485 main 566 564 __________P___ -1 15.0990 114.485 4 3 356
1908144N14116 1908 19 WP MM NOT_NAMED 1908-05-25 00:00:00 NR 15.2304 114.487 main 564 560 __________P___ -1 15.2304 114.487 4 3 0
1908144N14116 1908 19 WP MM NOT_NAMED 1908-05-25 03:00:00 NR 15.3592 114.495 main 560 560 __________P___ -1 15.3592 114.495 4 3 0
1908144N14116 1908 19 WP MM NOT_NAMED 1908-05-25 04:00:00 NR 15.4000 114.500 main 560 559 __________O___ -1 15.4000 114.500 4 2 9
1908144N14116 1908 19 WP MM NOT_NAMED 1908-05-25 06:00:00 NR 15.4697 114.503 main 559 555 __________P___ -1 15.4697 114.503 4 2 0
1908144N14116 1908 19 WP MM NOT_NAMED 1908-05-25 09:00:00 NR 15.5680 114.514 main 555 548 __________P___ -1 15.5680 114.514 4 2 11
1908144N14116 1908 19 WP MM NOT_NAMED 1908-05-25 12:00:00 NR 15.6642 114.538 main 548 546 __________P___ -1 15.6642 114.538 4 2 20
1908144N14116 1908 19 WP MM NOT_NAMED 1908-05-25 15:00:00 NR 15.7645 114.580 main 546 546 __________P___ -1 15.7645 114.580 4 2 23
1908144N14116 1908 19 WP MM NOT_NAMED 1908-05-25 16:00:00 NR 15.8000 114.600 main 546 542 __________O___ -1 15.8000 114.600 4 2 28
1908144N14116 1908 19 WP MM NOT_NAMED 1908-05-25 18:00:00 NR 15.8697 114.644 main 542 534 __________P___ -1 15.8697 114.644 4 3 35
1908144N14116 1908 19 WP MM NOT_NAMED 1908-05-25 21:00:00 NR 15.9805 114.730 main 534 523 __________P___ -1 15.9805 114.730 4 3 38
1908144N14116 1908 19 WP MM NOT_NAMED 1908-05-26 00:00:00 NR 16.1042 114.835 main 523 502 __________P___ -1 16.1042 114.835 4 3 39
1908144N14116 1908 19 WP MM NOT_NAMED 1908-05-26 03:00:00 NR 16.2470 114.956 main 502 503 __________P___ -1 16.2470 114.956 4 4 39
1908144N14116 1908 19 WP MM NOT_NAMED 1908-05-26 04:00:00 NR 16.3000 115.000 main 503 493 __________O___ -1 16.3000 115.000 4 4 35
1908144N14116 1908 19 WP MM NOT_NAMED 1908-05-26 06:00:00 NR 16.4161 115.078 main 493 483 __________P___ -1 16.4161 115.078 4 4 33
1908144N14116 1908 19 WP MM NOT_NAMED 1908-05-26 09:00:00 NR 16.6093 115.208 main 485 467 __________P___ -1 16.6093 115.208 4 5 34
1908144N14116 1908 19 WP MM NOT_NAMED 1908-05-26 12:00:00 NR 16.8169 115.358 main 467 459 __________P___ -1 16.8169 115.358 4 5 37
1908144N14116 1908 19 WP MM NOT_NAMED 1908-05-26 15:00:00 NR 17.0296 115.534 main 461 454 __________P___ -1 17.0296 115.534 4 6 39
1908144N14116 1908 19 WP MM NOT_NAMED 1908-05-26 16:00:00 NR 17.1000 115.600 main 454 447 __________O___ -1 17.1000 115.600 4 5 43
1908144N14116 1908 19 WP MM NOT_NAMED 1908-05-26 18:00:00 NR 17.2200 115.723 main 447 430 __________P___ -1 17.2200 115.723 4 5 47
1908144N14116 1908 19 WP MM NOT_NAMED 1908-05-26 21:00:00 NR 17.3998 115.933 main 433 409 __________P___ -1 17.3998 115.933 4 6 50
1908144N14116 1908 19 WP MM NOT_NAMED 1908-05-27 00:00:00 NR 17.5933 116.183 main 409 388 __________P___ -1 17.5933 116.183 4 7 52
1908144N14116 1908 19 WP MM NOT_NAMED 1908-05-27 03:00:00 NR 17.8164 116.485 main 388 384 __________P___ -1 17.8164 116.485 4 8 52
1908144N14116 1908 19 WP MM NOT_NAMED 1908-05-27 04:00:00 NR 17.9000 116.600 main 384 364 __________O___ -1 17.9000 116.600 4 9 52
1908144N14116 1908 19 WP MM NOT_NAMED 1908-05-27 06:00:00 NR 18.0962 116.857 main 364 329 __________P___ -1 18.0962 116.857 4 10 52
1908144N14116 1908 19 WP MM NOT_NAMED 1908-05-27 09:00:00 NR 18.4221 117.292 main 329 295 __________P___ -1 18.4221 117.292 4 11 52
1908144N14116 1908 19 WP MM NOT_NAMED 1908-05-27 12:00:00 NR 18.7635 117.764 main 295 261 __________P___ -1 18.7635 117.764 4 11 53
1908144N14116 1908 19 WP MM NOT_NAMED 1908-05-27 15:00:00 NR 19.0956 118.243 main 264 248 __________P___ -1 19.0956 118.243 4 11 54
1908144N14116 1908 19 WP MM NOT_NAMED 1908-05-27 16:00:00 NR 19.2000 118.400 main 248 229 __________O___ -1 19.2000 118.400 4 10 55
1908144N14116 1908 19 WP MM NOT_NAMED 1908-05-27 18:00:00 NR 19.3726 118.667 main 229 207 __________P___ -1 19.3726 118.667 4 9 56
1908144N14116 1908 19 WP MM NOT_NAMED 1908-05-27 21:00:00 NR 19.6126 119.059 main 207 191 __________P___ -1 19.6126 119.059 4 9 58
1908144N14116 1908 19 WP MM NOT_NAMED 1908-05-28 00:00:00 NR 19.8498 119.470 main 191 188 __________P___ -1 19.8498 119.470 4 10 59
1908144N14116 1908 19 WP MM NOT_NAMED 1908-05-28 03:00:00 NR 20.1064 119.930 main 192 187 __________P___ -1 20.1064 119.930 4 10 59
1908144N14116 1908 19 WP MM NOT_NAMED 1908-05-28 04:00:00 NR 20.2000 120.100 main 193 169 __________O___ -1 20.2000 120.100 4 12 59
1908144N14116 1908 19 WP MM NOT_NAMED 1908-05-28 06:00:00 NR 20.4134 120.484 main 169 124 __________P___ -1 20.4134 120.484 4 13 60
1908144N14116 1908 19 WP MM NOT_NAMED 1908-05-28 09:00:00 NR 20.7586 121.118 main 124 118 __________P___ -1 20.7586 121.118 4 14 60
1908144N14116 1908 19 WP MM NOT_NAMED 1908-05-28 12:00:00 NR 21.1199 121.792 main 129 129 __________P___ -1 21.1199 121.792 4 15 60
1908144N14116 1908 19 WP MM NOT_NAMED 1908-05-28 15:00:00 NR 21.4818 122.476 main 171 171 __________P___ -1 21.4818 122.476 4 15 60
1908144N14116 1908 19 WP MM NOT_NAMED 1908-05-28 16:00:00 NR 21.6000 122.700 main 188 188 __________O___ -1 21.6000 122.700 4 13 61
1908144N14116 1908 19 WP MM NOT_NAMED 1908-05-28 18:00:00 NR 21.7973 123.096 main 227 227 __________P___ -1 21.7973 123.096 4 12 62
1908144N14116 1908 19 WP MM NOT_NAMED 1908-05-28 21:00:00 NR 22.0871 123.682 main 261 261 __________P___ -1 22.0871 123.682 4 13 62
1908144N14116 1908 19 WP MM NOT_NAMED 1908-05-29 00:00:00 NR 22.3980 124.290 main 307 307 __________P___ -1 22.3980 124.290 4 14 60
1908144N14116 1908 19 WP MM NOT_NAMED 1908-05-29 03:00:00 NR 22.7617 124.958 main 368 368 __________P___ -1 22.7617 124.958 4 15 59
1908144N14116 1908 19 WP MM NOT_NAMED 1908-05-29 04:00:00 NR 22.9000 125.200 main 380 380 __________O___ -1 22.9000 125.200 4 17 58
1908144N14116 1908 19 WP MM NOT_NAMED 1908-05-29 06:00:00 NR 23.2239 125.746 main 412 418 __________P___ -1 23.2239 125.746 4 19 57
1908144N14116 1908 19 WP MM NOT_NAMED 1908-05-29 09:00:00 NR 23.7664 126.636 main 482 492 __________P___ -1 23.7664 126.636 4 20 56
1908144N14116 1908 19 WP MM NOT_NAMED 1908-05-29 12:00:00 NR 24.3428 127.570 main 570 569 __________P___ -1 24.3428 127.570 4 21 56
1908144N14116 1908 19 WP MM NOT_NAMED 1908-05-29 15:00:00 NR 24.9160 128.500 main 654 664 __________P___ -1 24.9160 128.500 4 20 56
1908144N14116 1908 19 WP MM NOT_NAMED 1908-05-29 16:00:00 NR 25.1000 128.800 main 684 627 __________O___ -1 25.1000 128.800 4 19 56
1908144N14116 1908 19 WP MM NOT_NAMED 1908-05-29 18:00:00 NR 25.4521 129.379 main 627 571 __________P___ -1 25.4521 129.379 4 18 56
1908144N14116 1908 19 WP MM NOT_NAMED 1908-05-29 21:00:00 NR 25.9460 130.201 main 571 513 __________P___ -1 25.9460 130.201 4 17 56
1908144N14116 1908 19 WP MM NOT_NAMED 1908-05-30 00:00:00 NR 26.4094 130.984 main 514 467 __________P___ -1 26.4094 130.984 4 17 57
1908144N14116 1908 19 WP MM NOT_NAMED 1908-05-30 03:00:00 NR 26.8541 131.747 main 467 461 __________P___ -1 26.8541 131.747 4 16 57
1908144N14116 1908 19 WP MM NOT_NAMED 1908-05-30 04:00:00 NR 27.0000 132.000 main 464 __________O___ -1 27.0000 132.000 4 16 57

Digital Typhoon Data and Search

About IBTrACS Database

This database is a web-friendly format of International Best Track Archive for Climate Stewardship (IBTrACS), a global best track data archive curated by NOAA dating back to 1842.

Updated: 2021-11-26